createdAt,value
2019-03-19T00:00:25.722Z,3.62
2019-03-19T00:02:54.413Z,3.61
2019-03-19T00:05:22.980Z,3.57
2019-03-19T00:07:51.643Z,3.60
2019-03-19T00:10:20.262Z,3.43
2019-03-19T00:12:48.839Z,3.41
2019-03-19T00:15:17.536Z,3.49
2019-03-19T00:17:46.118Z,3.44
2019-03-19T00:20:17.668Z,3.38
2019-03-19T00:22:47.689Z,3.34
2019-03-19T00:25:16.462Z,3.42
2019-03-19T00:27:45.191Z,3.43
2019-03-19T00:30:15.538Z,3.37
2019-03-19T00:32:44.328Z,3.40
2019-03-19T00:35:15.726Z,3.45
2019-03-19T00:37:44.293Z,3.40
2019-03-19T00:40:16.369Z,3.42
2019-03-19T00:42:45.055Z,3.44
2019-03-19T00:45:14.406Z,3.36
2019-03-19T00:47:44.248Z,3.36
2019-03-19T00:50:15.472Z,3.22
2019-03-19T00:52:44.098Z,3.18
2019-03-19T00:55:13.193Z,3.21
2019-03-19T00:57:41.861Z,3.28
2019-03-19T01:00:14.026Z,3.20
2019-03-19T01:02:42.730Z,3.23
2019-03-19T01:05:11.535Z,3.29
2019-03-19T01:07:40.109Z,3.28
2019-03-19T01:10:13.759Z,3.18
2019-03-19T01:12:42.394Z,3.24
2019-03-19T01:15:13.432Z,3.13
2019-03-19T01:17:42.118Z,3.28
2019-03-19T01:20:13.571Z,3.36
2019-03-19T01:22:42.254Z,3.45
2019-03-19T01:25:11.356Z,3.50
2019-03-19T01:27:40.241Z,3.50
2019-03-19T01:30:13.915Z,3.52
2019-03-19T01:32:42.513Z,3.52
2019-03-19T01:35:11.200Z,3.56
2019-03-19T01:37:39.885Z,3.62
2019-03-19T01:40:12.887Z,3.78
2019-03-19T01:42:41.980Z,3.70
2019-03-19T01:45:11.873Z,3.84
2019-03-19T01:47:40.603Z,3.76
2019-03-19T01:50:15.717Z,3.80
2019-03-19T01:52:44.409Z,3.81
2019-03-19T01:55:17.532Z,3.81
2019-03-19T01:57:46.585Z,3.88
2019-03-19T02:00:19.573Z,3.78
2019-03-19T02:02:48.260Z,3.94
2019-03-19T02:05:17.148Z,3.80
2019-03-19T02:07:45.834Z,3.74
2019-03-19T02:10:15.032Z,3.87
2019-03-19T02:12:43.660Z,3.77
2019-03-19T02:15:14.559Z,3.83
2019-03-19T02:17:43.444Z,3.78
2019-03-19T02:20:13.958Z,3.86
2019-03-19T02:22:42.667Z,3.72
2019-03-19T02:25:11.857Z,3.73
2019-03-19T02:27:40.544Z,3.70
2019-03-19T02:30:11.897Z,3.77
2019-03-19T02:32:40.888Z,3.62
2019-03-19T02:35:10.172Z,3.73
2019-03-19T02:37:38.971Z,3.58
2019-03-19T02:40:14.792Z,3.56
2019-03-19T02:42:43.425Z,3.61
2019-03-19T02:45:14.168Z,3.56
2019-03-19T02:47:42.852Z,3.46
2019-03-19T02:50:13.360Z,3.41
2019-03-19T02:52:42.005Z,3.47
2019-03-19T02:55:11.044Z,3.56
2019-03-19T02:57:39.727Z,3.54
2019-03-19T03:00:14.195Z,3.49
2019-03-19T03:02:42.841Z,3.41
2019-03-19T03:05:16.204Z,3.51
2019-03-19T03:07:44.806Z,3.38
2019-03-19T03:10:14.302Z,3.33
2019-03-19T03:12:43.115Z,3.36
2019-03-19T03:15:13.142Z,3.30
2019-03-19T03:17:42.031Z,3.20
2019-03-19T03:20:12.285Z,3.18
2019-03-19T03:22:41.019Z,3.12
2019-03-19T03:25:11.762Z,2.98
2019-03-19T03:27:40.552Z,3.04
2019-03-19T03:30:18.347Z,3.09
2019-03-19T03:32:46.937Z,3.05
2019-03-19T03:35:15.739Z,2.93
2019-03-19T03:37:44.385Z,2.90
2019-03-19T03:40:14.714Z,2.98
2019-03-19T03:42:43.648Z,3.01
2019-03-19T03:45:15.563Z,3.05
2019-03-19T03:47:44.363Z,2.96
2019-03-19T03:50:14.587Z,2.99
2019-03-19T03:52:43.308Z,3.02
2019-03-19T03:55:19.331Z,3.19
2019-03-19T03:57:48.122Z,3.25
2019-03-19T04:00:19.092Z,3.26
2019-03-19T04:02:47.656Z,3.27
2019-03-19T04:05:16.539Z,3.32
2019-03-19T04:07:45.316Z,3.30
2019-03-19T04:10:16.767Z,3.31
2019-03-19T04:12:45.762Z,3.41
2019-03-19T04:15:16.611Z,3.36
2019-03-19T04:17:45.343Z,3.45
2019-03-19T04:20:16.135Z,3.45
2019-03-19T04:22:44.804Z,3.38
2019-03-19T04:25:14.016Z,3.43
2019-03-19T04:27:43.126Z,3.48
2019-03-19T04:30:17.768Z,3.48
2019-03-19T04:32:46.509Z,3.38
2019-03-19T04:35:15.200Z,3.41
2019-03-19T04:37:43.778Z,3.49
2019-03-19T04:40:14.819Z,3.48
2019-03-19T04:42:43.941Z,3.43
2019-03-19T04:45:15.672Z,3.55
2019-03-19T04:47:44.562Z,3.45
2019-03-19T04:50:14.076Z,3.50
2019-03-19T04:52:42.786Z,3.53
2019-03-19T04:55:12.814Z,3.48
2019-03-19T04:57:41.463Z,3.46
2019-03-19T05:00:18.956Z,3.52
2019-03-19T05:02:47.738Z,3.48
2019-03-19T05:05:16.421Z,3.49
2019-03-19T05:07:44.993Z,3.44
2019-03-19T05:10:19.868Z,3.43
2019-03-19T05:12:48.523Z,3.44
2019-03-19T05:15:17.203Z,3.43
2019-03-19T05:17:45.861Z,3.56
2019-03-19T05:20:15.715Z,3.55
2019-03-19T05:22:44.360Z,3.54
2019-03-19T05:25:13.240Z,3.53
2019-03-19T05:27:42.124Z,3.56
2019-03-19T05:30:12.729Z,3.67
2019-03-19T05:32:41.305Z,3.59
2019-03-19T05:35:10.526Z,3.55
2019-03-19T05:37:39.237Z,3.56
2019-03-19T05:40:11.333Z,3.65
2019-03-19T05:42:39.982Z,3.64
2019-03-19T05:45:13.414Z,3.69
2019-03-19T05:47:42.102Z,3.62
2019-03-19T05:50:22.045Z,3.66
2019-03-19T05:52:50.655Z,3.69
2019-03-19T05:55:19.378Z,3.70
2019-03-19T05:57:50.196Z,3.87
2019-03-19T06:00:26.847Z,3.72
2019-03-19T06:02:55.515Z,3.79
2019-03-19T06:05:24.099Z,3.94
2019-03-19T06:07:52.711Z,3.78
2019-03-19T06:10:21.349Z,3.99
2019-03-19T06:12:50.155Z,4.08
2019-03-19T06:15:19.045Z,3.94
2019-03-19T06:17:47.813Z,3.95
2019-03-19T06:20:18.875Z,4.07
2019-03-19T06:22:47.451Z,3.96
2019-03-19T06:25:16.142Z,3.97
2019-03-19T06:27:44.880Z,4.10
2019-03-19T06:30:21.813Z,4.08
2019-03-19T06:32:50.386Z,3.95
2019-03-19T06:35:19.081Z,4.07
2019-03-19T06:37:47.768Z,4.24
2019-03-19T06:40:21.573Z,4.18
2019-03-19T06:42:51.852Z,4.41
2019-03-19T06:45:23.130Z,4.49
2019-03-19T06:47:51.732Z,4.35
2019-03-19T06:50:21.639Z,4.54
2019-03-19T06:52:50.230Z,4.68
2019-03-19T06:55:20.130Z,4.52
2019-03-19T06:57:50.343Z,4.43
2019-03-19T07:00:23.557Z,4.45
2019-03-19T07:02:52.439Z,4.43
2019-03-19T07:05:21.940Z,4.49
2019-03-19T07:07:50.626Z,4.32
2019-03-19T07:10:21.160Z,4.48
2019-03-19T07:12:49.816Z,4.67
2019-03-19T07:15:23.245Z,4.36
2019-03-19T07:17:52.030Z,4.54
2019-03-19T07:20:22.201Z,4.43
2019-03-19T07:22:50.894Z,4.84
2019-03-19T07:25:19.625Z,4.90
2019-03-19T07:27:48.205Z,4.81
2019-03-19T07:30:22.965Z,4.98
2019-03-19T07:32:51.598Z,4.83
2019-03-19T07:35:20.144Z,4.86
2019-03-19T07:37:48.998Z,5.04
2019-03-19T07:40:17.882Z,5.36
2019-03-19T07:42:48.706Z,5.27
2019-03-19T07:45:26.722Z,5.26
2019-03-19T07:47:55.339Z,4.93
2019-03-19T07:50:24.559Z,5.01
2019-03-19T07:52:53.188Z,5.00
2019-03-19T07:55:21.998Z,5.13
2019-03-19T07:57:50.665Z,5.50
2019-03-19T08:00:20.622Z,5.35
2019-03-19T08:02:49.330Z,5.26
2019-03-19T08:05:17.862Z,5.57
2019-03-19T08:07:46.559Z,5.66
2019-03-19T08:10:17.405Z,5.97
2019-03-19T08:12:46.156Z,6.10
2019-03-19T08:15:19.858Z,6.26
2019-03-19T08:17:48.543Z,6.00
2019-03-19T08:20:17.916Z,6.11
2019-03-19T08:22:46.494Z,6.02
2019-03-19T08:25:16.319Z,6.21
2019-03-19T08:27:45.031Z,6.52
2019-03-19T08:30:18.668Z,6.21
2019-03-19T08:32:47.231Z,6.56
2019-03-19T08:35:15.899Z,6.85
2019-03-19T08:37:44.843Z,6.93
2019-03-19T08:40:16.241Z,6.94
2019-03-19T08:42:44.923Z,7.38
2019-03-19T08:45:21.596Z,7.39
2019-03-19T08:47:50.266Z,7.06
2019-03-19T08:50:20.196Z,6.89
2019-03-19T08:52:48.780Z,7.20
2019-03-19T08:55:17.493Z,6.85
2019-03-19T08:57:46.136Z,6.82
2019-03-19T09:00:25.369Z,7.22
2019-03-19T09:02:54.054Z,7.04
2019-03-19T09:05:22.653Z,7.11
2019-03-19T09:07:51.283Z,7.21
2019-03-19T09:10:21.188Z,7.60
2019-03-19T09:12:49.940Z,7.39
2019-03-19T09:15:22.875Z,8.02
2019-03-19T09:17:51.456Z,7.98
2019-03-19T09:20:20.143Z,7.79
2019-03-19T09:22:48.780Z,7.89
2019-03-19T09:25:17.567Z,8.48
2019-03-19T09:27:46.267Z,7.80
2019-03-19T09:30:25.313Z,7.62
2019-03-19T09:32:53.909Z,8.33
2019-03-19T09:35:26.297Z,8.67
2019-03-19T09:37:58.930Z,8.79
2019-03-19T09:40:25.173Z,8.63
2019-03-19T09:42:53.772Z,8.67
2019-03-19T09:45:22.412Z,8.27
2019-03-19T09:47:51.099Z,8.19
2019-03-19T09:50:25.003Z,8.64
2019-03-19T09:52:53.691Z,8.70
2019-03-19T09:55:22.290Z,8.21
2019-03-19T09:57:50.875Z,8.77
2019-03-19T10:00:21.379Z,8.78
2019-03-19T10:02:53.558Z,8.70
2019-03-19T10:05:22.379Z,8.42
2019-03-19T10:07:50.911Z,8.77
2019-03-19T10:10:20.636Z,9.40
2019-03-19T10:12:49.320Z,9.17
2019-03-19T10:15:18.416Z,9.91
2019-03-19T10:17:47.002Z,10.00
2019-03-19T10:20:18.862Z,10.65
2019-03-19T10:22:47.884Z,9.63
2019-03-19T10:25:17.279Z,9.17
2019-03-19T10:27:45.849Z,9.05
2019-03-19T10:30:24.433Z,8.89
2019-03-19T10:32:53.109Z,8.90
2019-03-19T10:35:21.830Z,8.94
2019-03-19T10:37:50.515Z,9.17
2019-03-19T10:40:21.181Z,10.11
2019-03-19T10:42:49.800Z,10.72
2019-03-19T10:45:22.331Z,10.18
2019-03-19T10:47:51.086Z,10.65
2019-03-19T10:50:24.063Z,10.45
2019-03-19T10:52:52.636Z,10.53
2019-03-19T10:55:21.349Z,9.94
2019-03-19T10:57:50.036Z,9.54
2019-03-19T11:00:28.506Z,10.03
2019-03-19T11:02:57.136Z,10.96
2019-03-19T11:05:26.153Z,11.44
2019-03-19T11:07:55.025Z,11.77
2019-03-19T11:10:23.707Z,11.85
2019-03-19T11:12:52.390Z,11.79
2019-03-19T11:15:28.430Z,10.69
2019-03-19T11:17:57.098Z,11.08
2019-03-19T11:20:26.032Z,12.50
2019-03-19T11:22:54.615Z,10.99
2019-03-19T11:25:30.258Z,10.19
2019-03-19T11:27:58.820Z,9.81
2019-03-19T11:30:28.646Z,9.12
2019-03-19T11:32:57.360Z,8.87
2019-03-19T11:35:26.235Z,9.03
2019-03-19T11:37:55.944Z,8.97
2019-03-19T11:40:26.273Z,9.38
2019-03-19T11:42:55.153Z,9.65
2019-03-19T11:45:24.688Z,9.64
2019-03-19T11:47:53.309Z,9.34
2019-03-19T11:50:33.134Z,9.49
2019-03-19T11:53:01.089Z,9.09
2019-03-19T11:55:29.746Z,8.68
2019-03-19T11:57:58.459Z,8.95
2019-03-19T12:00:38.893Z,9.15
2019-03-19T12:03:15.451Z,9.27
2019-03-19T12:05:37.882Z,9.24
2019-03-19T12:08:06.795Z,10.89
2019-03-19T12:10:35.346Z,9.44
2019-03-19T12:13:04.161Z,9.32
2019-03-19T12:15:32.833Z,9.11
2019-03-19T12:18:01.533Z,9.59
2019-03-19T12:20:30.084Z,9.99
2019-03-19T12:22:58.707Z,9.43
2019-03-19T12:25:27.283Z,9.04
2019-03-19T12:27:55.968Z,8.66
2019-03-19T12:30:26.489Z,8.74
2019-03-19T12:32:55.262Z,8.84
2019-03-19T12:35:23.870Z,9.03
2019-03-19T12:37:52.557Z,9.35
2019-03-19T12:40:22.572Z,9.45
2019-03-19T12:42:51.259Z,9.83
2019-03-19T12:45:23.592Z,9.86
2019-03-19T12:47:52.318Z,13.58
2019-03-19T12:50:25.202Z,10.14
2019-03-19T12:52:54.105Z,9.80
2019-03-19T12:55:22.777Z,9.89
2019-03-19T12:57:51.449Z,9.69
2019-03-19T13:00:34.238Z,9.53
2019-03-19T13:02:58.155Z,9.68
2019-03-19T13:05:26.694Z,9.68
2019-03-19T13:07:55.361Z,9.23
2019-03-19T13:10:24.909Z,8.86
2019-03-19T13:12:53.500Z,8.85
2019-03-19T13:15:22.465Z,8.73
2019-03-19T13:17:51.191Z,8.32
2019-03-19T13:20:21.210Z,8.58
2019-03-19T13:22:49.989Z,8.48
2019-03-19T13:25:22.357Z,8.57
2019-03-19T13:27:51.037Z,8.75
2019-03-19T13:30:27.446Z,8.84
2019-03-19T13:32:56.104Z,10.52
2019-03-19T13:35:26.276Z,13.03
2019-03-19T13:37:55.073Z,14.78
2019-03-19T13:40:23.628Z,10.21
2019-03-19T13:42:52.381Z,9.94
2019-03-19T13:45:22.561Z,9.60
2019-03-19T13:47:51.188Z,9.52
2019-03-19T13:50:20.760Z,8.93
2019-03-19T13:52:49.324Z,10.01
2019-03-19T13:55:21.035Z,9.99
2019-03-19T13:57:49.716Z,9.88
2019-03-19T14:00:19.121Z,10.08
2019-03-19T14:02:48.215Z,10.20
2019-03-19T14:05:17.493Z,9.77
2019-03-19T14:07:46.144Z,9.75
2019-03-19T14:10:19.702Z,10.23
2019-03-19T14:12:48.798Z,10.57
2019-03-19T14:15:27.689Z,10.54
2019-03-19T14:17:56.418Z,11.21
2019-03-19T14:20:25.109Z,11.00
2019-03-19T14:22:53.830Z,10.29
2019-03-19T14:25:22.415Z,10.28
2019-03-19T14:27:51.033Z,10.48
2019-03-19T14:30:25.059Z,10.56
2019-03-19T14:32:53.951Z,10.97
2019-03-19T14:35:22.814Z,10.68
2019-03-19T14:37:51.504Z,10.52
2019-03-19T14:40:23.981Z,10.63
2019-03-19T14:42:52.685Z,10.79
2019-03-19T14:45:21.392Z,10.77
2019-03-19T14:47:49.946Z,10.72
2019-03-19T14:50:21.646Z,10.77
2019-03-19T14:52:50.243Z,10.33
2019-03-19T14:55:18.878Z,10.67
2019-03-19T14:57:47.564Z,10.37
2019-03-19T15:00:18.410Z,9.96
2019-03-19T15:02:47.118Z,9.82
2019-03-19T15:05:15.992Z,9.56
2019-03-19T15:07:44.783Z,9.62
2019-03-19T15:10:19.981Z,9.53
2019-03-19T15:12:48.577Z,9.24
2019-03-19T15:15:18.303Z,8.93
2019-03-19T15:17:51.831Z,9.47
2019-03-19T15:20:27.929Z,9.43
2019-03-19T15:22:56.657Z,9.40
2019-03-19T15:25:25.311Z,9.18
2019-03-19T15:27:53.906Z,9.05
2019-03-19T15:30:22.602Z,9.22
2019-03-19T15:32:51.239Z,8.92
2019-03-19T15:35:19.827Z,8.63
2019-03-19T15:37:48.555Z,8.58
2019-03-19T15:40:18.320Z,8.66
2019-03-19T15:42:47.056Z,8.51
2019-03-19T15:45:26.226Z,8.65
2019-03-19T15:47:54.870Z,8.66
2019-03-19T15:50:23.453Z,8.63
2019-03-19T15:52:52.139Z,8.88
2019-03-19T15:55:20.836Z,8.88
2019-03-19T15:57:49.509Z,9.00
2019-03-19T16:00:20.378Z,8.82
2019-03-19T16:02:49.007Z,8.64
2019-03-19T16:05:17.600Z,8.47
2019-03-19T16:07:46.281Z,8.42
2019-03-19T16:10:15.812Z,8.27
2019-03-19T16:12:44.491Z,8.28
2019-03-19T16:15:16.452Z,8.28
2019-03-19T16:17:45.124Z,8.16
2019-03-19T16:20:19.456Z,7.94
2019-03-19T16:22:48.245Z,8.01
2019-03-19T16:25:16.775Z,8.03
2019-03-19T16:27:45.521Z,8.18
2019-03-19T16:30:18.383Z,8.19
2019-03-19T16:32:47.016Z,8.20
2019-03-19T16:35:15.704Z,7.95
2019-03-19T16:37:44.578Z,8.06
2019-03-19T16:40:18.289Z,7.98
2019-03-19T16:42:46.947Z,7.83
2019-03-19T16:45:18.035Z,7.69
2019-03-19T16:47:46.365Z,7.63
2019-03-19T16:50:18.893Z,7.47
2019-03-19T16:52:47.620Z,7.32
2019-03-19T16:55:17.316Z,7.31
2019-03-19T16:57:45.900Z,7.24
2019-03-19T17:00:17.268Z,7.14
2019-03-19T17:02:46.365Z,7.15
2019-03-19T17:05:17.918Z,6.94
2019-03-19T17:07:46.926Z,6.92
2019-03-19T17:10:20.684Z,6.84
2019-03-19T17:12:49.248Z,6.76
2019-03-19T17:15:18.277Z,6.65
2019-03-19T17:17:47.160Z,6.45
2019-03-19T17:20:17.349Z,6.52
2019-03-19T17:22:46.091Z,6.53
2019-03-19T17:25:18.870Z,6.21
2019-03-19T17:27:47.760Z,6.26
2019-03-19T17:30:21.156Z,6.11
2019-03-19T17:32:49.954Z,6.03
2019-03-19T17:35:18.558Z,6.10
2019-03-19T17:37:47.704Z,6.10
2019-03-19T17:40:17.128Z,6.01
2019-03-19T17:42:45.814Z,5.97
2019-03-19T17:45:18.494Z,5.88
2019-03-19T17:47:49.153Z,5.66
2019-03-19T17:50:22.017Z,5.66
2019-03-19T17:52:52.754Z,5.56
2019-03-19T17:55:22.863Z,5.46
2019-03-19T17:57:52.060Z,5.45
2019-03-19T18:00:25.972Z,5.37
2019-03-19T18:02:54.756Z,5.30
2019-03-19T18:05:23.646Z,5.04
2019-03-19T18:07:54.360Z,4.98
2019-03-19T18:10:22.888Z,4.72
2019-03-19T18:12:51.548Z,4.48
2019-03-19T18:15:20.642Z,4.49
2019-03-19T18:17:49.311Z,4.42
2019-03-19T18:20:18.645Z,4.27
2019-03-19T18:22:47.213Z,4.21
2019-03-19T18:25:20.264Z,4.16
2019-03-19T18:27:48.985Z,4.19
2019-03-19T18:30:19.927Z,4.22
2019-03-19T18:32:48.508Z,4.03
2019-03-19T18:35:17.093Z,4.02
2019-03-19T18:37:45.983Z,3.96
2019-03-19T18:40:16.111Z,3.71
2019-03-19T18:42:44.994Z,3.70
2019-03-19T18:45:15.939Z,3.80
2019-03-19T18:47:45.046Z,3.73
2019-03-19T18:50:21.700Z,3.72
2019-03-19T18:52:50.434Z,3.73
2019-03-19T18:55:19.176Z,3.69
2019-03-19T18:57:47.964Z,3.63
2019-03-19T19:00:21.987Z,3.56
2019-03-19T19:02:51.301Z,3.43
2019-03-19T19:05:21.463Z,3.21
2019-03-19T19:07:50.290Z,3.13
2019-03-19T19:10:21.143Z,3.09
2019-03-19T19:12:50.440Z,3.20
2019-03-19T19:15:24.376Z,3.26
2019-03-19T19:17:55.579Z,3.16
2019-03-19T19:20:24.374Z,3.04
2019-03-19T19:22:53.148Z,2.86
2019-03-19T19:25:26.959Z,2.89
2019-03-19T19:27:55.949Z,2.90
2019-03-19T19:30:25.938Z,2.77
2019-03-19T19:33:01.659Z,2.70
2019-03-19T19:35:25.080Z,2.70
2019-03-19T19:37:53.972Z,2.67
2019-03-19T19:40:22.860Z,2.64
2019-03-19T19:42:51.485Z,2.57
2019-03-19T19:45:20.335Z,2.64
2019-03-19T19:47:49.226Z,2.49
2019-03-19T19:50:19.242Z,2.45
2019-03-19T19:52:48.030Z,2.51
2019-03-19T19:55:16.716Z,2.56
2019-03-19T19:57:45.397Z,2.37
2019-03-19T20:00:21.316Z,2.37
2019-03-19T20:02:50.147Z,2.30
2019-03-19T20:05:19.038Z,2.28
2019-03-19T20:07:48.117Z,2.10
2019-03-19T20:10:24.023Z,2.13
2019-03-19T20:12:52.768Z,2.23
2019-03-19T20:15:21.464Z,2.15
2019-03-19T20:17:50.065Z,2.03
2019-03-19T20:20:20.163Z,2.17
2019-03-19T20:22:48.845Z,2.02
2019-03-19T20:25:17.531Z,2.00
2019-03-19T20:27:46.215Z,1.95
2019-03-19T20:30:17.669Z,1.86
2019-03-19T20:32:46.453Z,1.81
2019-03-19T20:35:14.996Z,1.80
2019-03-19T20:37:43.825Z,1.72
2019-03-19T20:40:14.491Z,1.76
2019-03-19T20:42:43.262Z,1.75
2019-03-19T20:45:16.640Z,1.72
2019-03-19T20:47:45.353Z,1.60
2019-03-19T20:50:28.553Z,1.63
2019-03-19T20:52:57.247Z,1.61
2019-03-19T20:55:26.028Z,1.55
2019-03-19T20:57:54.714Z,1.66
2019-03-19T21:00:23.412Z,1.49
2019-03-19T21:02:52.084Z,1.38
2019-03-19T21:05:20.683Z,1.54
2019-03-19T21:07:49.275Z,1.48
2019-03-19T21:10:23.093Z,1.42
2019-03-19T21:12:51.951Z,1.35
2019-03-19T21:15:26.135Z,1.37
2019-03-19T21:17:55.147Z,1.32
2019-03-19T21:20:23.738Z,1.17
2019-03-19T21:22:52.526Z,1.15
2019-03-19T21:25:21.315Z,1.16
2019-03-19T21:27:51.666Z,1.23
2019-03-19T21:30:21.550Z,1.20
2019-03-19T21:32:50.202Z,1.01
2019-03-19T21:35:22.805Z,0.98
2019-03-19T21:37:51.708Z,1.10
2019-03-19T21:40:20.416Z,1.06
2019-03-19T21:42:49.081Z,0.99
2019-03-19T21:45:19.193Z,1.04
2019-03-19T21:47:53.632Z,0.93
2019-03-19T21:50:23.526Z,0.91
2019-03-19T21:52:52.057Z,0.98
2019-03-19T21:55:20.810Z,0.96
2019-03-19T21:57:49.594Z,0.91
2019-03-19T22:00:20.826Z,0.99
2019-03-19T22:02:49.522Z,0.89
2019-03-19T22:05:18.208Z,0.74
2019-03-19T22:07:46.814Z,0.93
2019-03-19T22:10:22.050Z,0.99
2019-03-19T22:12:50.872Z,1.04
2019-03-19T22:15:26.467Z,1.16
2019-03-19T22:17:55.259Z,1.01
2019-03-19T22:20:23.824Z,0.79
2019-03-19T22:22:52.527Z,0.76
2019-03-19T22:25:21.312Z,0.70
2019-03-19T22:27:49.897Z,0.67
2019-03-19T22:30:19.512Z,0.66
2019-03-19T22:32:48.170Z,0.60
2019-03-19T22:35:17.016Z,0.58
2019-03-19T22:37:45.867Z,0.62
2019-03-19T22:40:16.445Z,0.69
2019-03-19T22:42:45.083Z,0.55
2019-03-19T22:45:14.991Z,0.53
2019-03-19T22:47:43.991Z,0.48
2019-03-19T22:50:14.611Z,0.65
2019-03-19T22:52:43.580Z,0.68
2019-03-19T22:55:13.737Z,0.47
2019-03-19T22:57:42.464Z,0.57
2019-03-19T23:00:21.358Z,0.53
2019-03-19T23:02:49.912Z,0.29
2019-03-19T23:05:18.556Z,0.31
2019-03-19T23:07:47.163Z,0.35
2019-03-19T23:10:15.882Z,0.30
2019-03-19T23:12:44.671Z,0.30
2019-03-19T23:15:14.487Z,0.17
2019-03-19T23:17:43.407Z,0.16
2019-03-19T23:20:15.618Z,0.23
2019-03-19T23:22:44.291Z,0.18
2019-03-19T23:25:13.321Z,0.16
2019-03-19T23:27:42.111Z,0.14
2019-03-19T23:30:15.302Z,0.18
2019-03-19T23:32:43.908Z,0.09
2019-03-19T23:35:12.675Z,0.09
2019-03-19T23:37:41.394Z,0.12
2019-03-19T23:40:12.063Z,0.02
2019-03-19T23:42:40.889Z,0.22
2019-03-19T23:45:11.514Z,0.11
2019-03-19T23:47:40.679Z,0.02
2019-03-19T23:50:14.210Z,0.00
2019-03-19T23:52:42.896Z,-0.08
2019-03-19T23:55:11.786Z,-0.09
2019-03-19T23:57:40.472Z,-0.05
